Portada
METAR-TAF:

METAR-TAF

Aeroports :

Vieux Fort, Saint Lucia

latitud: 13-45N, longitud: 060-57W, altitud: 3 m

Observació

L'informe es va fer fa 50 minuts, a les 10:00 UTC
Vent 12 kt del Est/Nord-Est
Temperatura 26°C
Humitat 89%
Pressió 1011 hPa
Visibilitat 10 km o més
Escasses núvols a una alçada de 1800 ft
Núvols disperses a una alçada de 3800 ft

METAR: TLPL 121000Z 07012KT 9999 FEW018 SCT038 26/24 Q1011 TEMPO SHRA

Hora: 06:50 (10:50 UTC)

Pronòstic

L'informe es va fer fa 5 hores i 50 minuts, a les 05:00 UTC
Pronòstic vàlid del 12 a les 06 UTC al 13 a les 06 UTC
Vent 18 kt del Est
Visibilitat 10 km o més
Núvols disperses a una alçada de 2500 ft
Temporalment
l' 12 a les 06 UTC al 12 a les 18 UTC
Visibilitat: 5000 m
Cel ennuvolat a una alçada de 1700 ft, Cumulus congestus.
Cel ennuvolat a una alçada de 4000 ft
xàfecs de pluja

TAF: TLPL 120500Z 1206/1306 08018KT 9999 SCT025 TEMPO 1206/1218 5000 SHRA BKN017TCU BKN040

Observacions i pronòstics meteorològics de més de 4000 aeroports (METAR i TAF).

Les estacions disponibles són els punts grocs i vermells al mapa.

Posi el ratolí al punt desitjat per veure el nom de l'estació.

Feu clic per veure les observacions i els pronòstics meteorològics.

Per canviar el mapa: feu clic els botons verds amb una creu de color negre per apropar; al botó verd amb un guió per allunyar la imatge; o en les fletxes verdes per a mapes adjacents.


METAR-TAF: